createdAt,value
2023-05-09T00:00:11.178Z,11.63
2023-05-09T00:05:13.114Z,11.89
2023-05-09T00:10:14.993Z,11.52
2023-05-09T00:15:16.582Z,11.66
2023-05-09T00:20:18.103Z,11.74
2023-05-09T00:25:19.542Z,11.54
2023-05-09T00:30:21.031Z,11.42
2023-05-09T00:35:22.727Z,11.44
2023-05-09T00:40:24.195Z,11.33
2023-05-09T00:45:26.300Z,11.10
2023-05-09T00:50:27.744Z,10.87
2023-05-09T00:55:29.498Z,10.80
2023-05-09T01:00:31.336Z,10.67
2023-05-09T01:05:43.753Z,10.51
2023-05-09T01:11:09.410Z,10.14
2023-05-09T01:16:19.902Z,10.16
2023-05-09T01:21:26.878Z,10.38
2023-05-09T01:27:04.396Z,10.23
2023-05-09T01:32:09.802Z,10.28
2023-05-09T01:37:14.973Z,10.26
2023-05-09T01:42:18.976Z,10.13
2023-05-09T01:47:21.095Z,10.36
2023-05-09T01:52:24.456Z,9.93
2023-05-09T01:57:29.130Z,9.82
2023-05-09T02:02:30.971Z,10.02
2023-05-09T02:07:33.317Z,10.06
2023-05-09T02:12:34.784Z,9.94
2023-05-09T02:17:36.176Z,9.72
2023-05-09T02:22:41.198Z,9.77
2023-05-09T02:27:46.035Z,9.88
2023-05-09T02:32:50.689Z,9.68
2023-05-09T02:37:55.256Z,9.62
2023-05-09T02:42:57.213Z,9.69
2023-05-09T02:47:59.004Z,9.45
2023-05-09T02:53:00.519Z,9.12
2023-05-09T02:58:11.934Z,9.23
2023-05-09T03:03:14.877Z,9.21
2023-05-09T03:08:16.516Z,9.48
2023-05-09T03:13:18.969Z,9.54
2023-05-09T03:18:20.576Z,9.15
2023-05-09T03:23:21.983Z,9.04
2023-05-09T03:28:23.512Z,9.33
2023-05-09T03:33:25.028Z,9.14
2023-05-09T03:38:27.629Z,9.33
2023-05-09T03:43:29.127Z,8.83
2023-05-09T03:48:31.411Z,9.04
2023-05-09T03:53:32.936Z,8.85
2023-05-09T03:58:34.460Z,8.68
2023-05-09T04:03:37.629Z,8.99
2023-05-09T04:08:39.770Z,8.52
2023-05-09T04:13:42.203Z,8.73
2023-05-09T04:19:03.308Z,8.77
2023-05-09T04:24:05.017Z,8.64
2023-05-09T04:29:16.954Z,8.66
2023-05-09T04:34:24.801Z,8.57
2023-05-09T04:39:27.034Z,8.73
2023-05-09T04:44:37.497Z,8.73
2023-05-09T04:49:39.052Z,8.68
2023-05-09T04:54:41.007Z,8.75
2023-05-09T04:59:42.677Z,8.90
2023-05-09T05:04:46.880Z,9.08
2023-05-09T05:09:48.949Z,9.12
2023-05-09T05:14:50.659Z,9.16
2023-05-09T05:19:55.217Z,9.29
2023-05-09T05:24:56.978Z,9.36
2023-05-09T05:29:59.760Z,9.48
2023-05-09T05:35:02.563Z,9.73
2023-05-09T05:40:05.977Z,9.74
2023-05-09T05:45:09.023Z,9.97
2023-05-09T05:50:14.057Z,10.10
2023-05-09T05:55:15.854Z,10.17
2023-05-09T06:00:17.816Z,10.40
2023-05-09T06:05:23.147Z,10.50
2023-05-09T06:10:25.793Z,10.75
2023-05-09T06:15:27.392Z,10.90
2023-05-09T06:20:29.784Z,11.06
2023-05-09T06:25:31.232Z,11.20
2023-05-09T06:30:32.670Z,11.37
2023-05-09T06:35:34.093Z,11.49
2023-05-09T06:40:35.624Z,11.70
2023-05-09T06:45:37.111Z,11.94
2023-05-09T06:50:38.644Z,12.17
2023-05-09T06:55:40.210Z,12.31
2023-05-09T07:00:41.649Z,12.48
2023-05-09T07:05:43.185Z,12.58
2023-05-09T07:10:44.582Z,12.72
2023-05-09T07:15:46.313Z,12.78
2023-05-09T07:20:47.882Z,13.03
2023-05-09T07:25:49.484Z,13.25
2023-05-09T07:30:50.955Z,13.36
2023-05-09T07:35:53.037Z,13.47
2023-05-09T07:40:54.447Z,13.71
2023-05-09T07:45:55.932Z,13.82
2023-05-09T07:50:58.204Z,14.09
2023-05-09T07:55:59.681Z,14.30
2023-05-09T08:01:01.215Z,14.32
2023-05-09T08:06:02.708Z,14.59
2023-05-09T08:11:05.484Z,14.89
2023-05-09T08:16:07.502Z,14.91
2023-05-09T08:21:09.174Z,15.11
2023-05-09T08:26:10.593Z,15.15
2023-05-09T08:31:12.038Z,15.76
2023-05-09T08:36:13.456Z,15.96
2023-05-09T08:41:15.328Z,15.73
2023-05-09T08:46:18.288Z,16.23
2023-05-09T08:51:20.198Z,16.58
2023-05-09T08:56:22.266Z,16.47
2023-05-09T09:01:26.665Z,16.96
2023-05-09T09:06:30.082Z,17.02
2023-05-09T09:11:33.037Z,17.15
2023-05-09T09:16:37.049Z,17.96
2023-05-09T09:21:43.099Z,17.85
2023-05-09T09:26:50.348Z,17.31
2023-05-09T09:31:57.857Z,17.63
2023-05-09T09:36:59.459Z,18.58
2023-05-09T09:42:11.785Z,18.52
2023-05-09T09:47:13.199Z,18.64
2023-05-09T09:52:23.555Z,18.97
2023-05-09T09:57:39.706Z,18.35
2023-05-09T10:02:54.346Z,19.20
2023-05-09T10:08:01.013Z,18.91
2023-05-09T10:13:06.351Z,19.17
2023-05-09T10:18:11.136Z,19.57
2023-05-09T10:23:14.747Z,19.67
2023-05-09T10:28:22.457Z,20.18
2023-05-09T10:33:34.325Z,20.23
2023-05-09T10:38:37.235Z,20.58
2023-05-09T10:43:42.807Z,20.75
2023-05-09T10:48:48.082Z,20.52
2023-05-09T10:53:50.869Z,20.51
2023-05-09T10:58:52.513Z,20.86
2023-05-09T11:03:58.895Z,20.77
2023-05-09T11:09:32.581Z,21.77
2023-05-09T11:14:44.782Z,22.18
2023-05-09T11:19:49.810Z,23.02
2023-05-09T11:25:04.637Z,21.60
2023-05-09T11:30:34.773Z,22.43
2023-05-09T11:35:37.752Z,21.22
2023-05-09T11:40:39.670Z,22.94
2023-05-09T11:45:41.688Z,22.85
2023-05-09T11:50:47.856Z,22.42
2023-05-09T11:55:50.583Z,22.32
2023-05-09T12:00:55.015Z,22.68
2023-05-09T12:05:56.962Z,22.40
2023-05-09T12:11:08.384Z,23.64
2023-05-09T12:16:09.842Z,23.07
2023-05-09T12:21:12.123Z,23.97
2023-05-09T12:26:14.467Z,22.50
2023-05-09T12:31:16.944Z,24.01
2023-05-09T12:36:18.727Z,22.74
2023-05-09T12:41:34.949Z,24.33
2023-05-09T12:46:41.182Z,23.20
2023-05-09T12:51:49.291Z,22.38
2023-05-09T12:56:58.460Z,23.06
2023-05-09T13:02:01.647Z,23.32
2023-05-09T13:07:10.165Z,24.70
2023-05-09T13:12:11.610Z,24.00
2023-05-09T13:17:13.150Z,24.73
2023-05-09T13:22:16.511Z,25.26
2023-05-09T13:27:17.952Z,23.91
2023-05-09T13:32:19.438Z,23.73
2023-05-09T13:37:21.605Z,23.91
2023-05-09T13:42:23.022Z,24.73
2023-05-09T13:47:24.501Z,24.04
2023-05-09T13:52:26.072Z,25.08
2023-05-09T13:57:27.938Z,24.33
2023-05-09T14:02:29.457Z,23.87
2023-05-09T14:07:30.988Z,24.36
2023-05-09T14:12:32.629Z,24.17
2023-05-09T14:17:34.093Z,25.22
2023-05-09T14:22:35.583Z,25.42
2023-05-09T14:27:37.232Z,24.19
2023-05-09T14:32:38.756Z,24.36
2023-05-09T14:37:41.368Z,22.90
2023-05-09T14:42:44.107Z,22.67
2023-05-09T14:47:45.680Z,24.14
2023-05-09T14:52:48.889Z,22.97
2023-05-09T14:57:50.313Z,23.80
2023-05-09T15:02:51.772Z,22.40
2023-05-09T15:07:53.603Z,23.45
2023-05-09T15:12:55.959Z,23.38
2023-05-09T15:17:57.703Z,22.80
2023-05-09T15:23:12.483Z,22.90
2023-05-09T15:28:14.167Z,23.31
2023-05-09T15:33:15.660Z,23.40
2023-05-09T15:38:17.518Z,23.09
2023-05-09T15:43:19.079Z,23.14
2023-05-09T15:48:21.600Z,23.76
2023-05-09T15:53:23.360Z,23.16
2023-05-09T15:58:25.036Z,22.89
2023-05-09T16:03:27.542Z,22.48
2023-05-09T16:08:29.209Z,22.46
2023-05-09T16:13:31.527Z,24.50
2023-05-09T16:18:33.888Z,22.86
2023-05-09T16:23:35.368Z,23.30
2023-05-09T16:28:36.873Z,22.35
2023-05-09T16:33:38.508Z,22.24
2023-05-09T16:38:39.984Z,21.98
2023-05-09T16:43:41.519Z,22.65
2023-05-09T16:54:15.769Z,22.80
2023-05-09T16:59:20.133Z,22.12
2023-05-09T17:04:21.654Z,22.36
2023-05-09T17:09:23.130Z,22.07
2023-05-09T17:14:24.657Z,22.46
2023-05-09T17:19:26.414Z,22.34
2023-05-09T17:24:27.832Z,21.87
2023-05-09T17:29:30.556Z,22.14
2023-05-09T17:34:32.284Z,22.00
2023-05-09T17:39:33.730Z,21.23
2023-05-09T17:44:35.152Z,21.39
2023-05-09T17:49:36.621Z,21.27
2023-05-09T17:54:38.058Z,22.09
2023-05-09T17:59:41.325Z,21.13
2023-05-09T18:04:44.565Z,21.21
2023-05-09T18:09:46.191Z,21.03
2023-05-09T18:14:47.752Z,21.23
2023-05-09T18:19:49.295Z,21.23
2023-05-09T18:24:52.287Z,20.09
2023-05-09T18:29:53.698Z,21.53
2023-05-09T18:34:55.169Z,20.86
2023-05-09T18:39:57.096Z,21.66
2023-05-09T18:45:00.726Z,21.90
2023-05-09T18:50:03.966Z,21.29
2023-05-09T18:55:06.007Z,20.86
2023-05-09T19:00:08.084Z,20.66
2023-05-09T19:05:09.517Z,20.57
2023-05-09T19:10:11.125Z,20.07
2023-05-09T19:15:12.632Z,19.27
2023-05-09T19:20:14.548Z,18.95
2023-05-09T19:25:16.278Z,19.88
2023-05-09T19:30:17.945Z,19.33
2023-05-09T19:35:20.179Z,19.20
2023-05-09T19:40:21.898Z,19.33
2023-05-09T19:45:23.321Z,19.13
2023-05-09T19:50:24.740Z,18.96
2023-05-09T19:55:26.292Z,19.25
2023-05-09T20:00:27.821Z,18.83
2023-05-09T20:05:29.258Z,18.65
2023-05-09T20:10:30.845Z,18.79
2023-05-09T20:15:32.308Z,18.33
2023-05-09T20:20:34.144Z,18.61
2023-05-09T20:25:35.580Z,18.56
2023-05-09T20:30:36.987Z,18.42
2023-05-09T20:35:39.807Z,18.31
2023-05-09T20:40:42.972Z,17.99
2023-05-09T20:45:44.472Z,17.95
2023-05-09T20:50:46.336Z,17.66
2023-05-09T20:55:50.222Z,17.57
2023-05-09T21:00:52.049Z,17.26
2023-05-09T21:05:53.700Z,17.36
2023-05-09T21:10:55.124Z,17.25
2023-05-09T21:15:56.544Z,17.24
2023-05-09T21:21:01.651Z,17.38
2023-05-09T21:26:03.179Z,17.01
2023-05-09T21:31:04.857Z,16.63
2023-05-09T21:36:07.556Z,16.36
2023-05-09T21:41:10.001Z,16.20
2023-05-09T21:46:11.539Z,16.36
2023-05-09T21:51:13.025Z,16.00
2023-05-09T21:56:14.435Z,15.78
2023-05-09T22:01:18.435Z,15.77
2023-05-09T22:06:19.915Z,15.87
2023-05-09T22:11:21.375Z,15.82
2023-05-09T22:16:22.958Z,15.70
2023-05-09T22:21:24.408Z,15.56
2023-05-09T22:26:26.168Z,15.43
2023-05-09T22:31:27.621Z,15.60
2023-05-09T22:36:29.140Z,15.48
2023-05-09T22:41:30.564Z,15.48
2023-05-09T22:46:32.304Z,15.53
2023-05-09T22:51:33.923Z,15.29
2023-05-09T22:56:35.359Z,15.20
2023-05-09T23:01:36.817Z,14.64
2023-05-09T23:06:38.283Z,14.68
2023-05-09T23:11:39.725Z,15.00
2023-05-09T23:16:41.153Z,14.74
2023-05-09T23:21:42.596Z,14.71
2023-05-09T23:26:44.298Z,14.87
2023-05-09T23:31:45.917Z,14.51
2023-05-09T23:36:47.409Z,14.63
2023-05-09T23:41:48.828Z,14.64
2023-05-09T23:46:50.390Z,14.37
2023-05-09T23:51:51.852Z,14.58
2023-05-09T23:56:53.290Z,14.19
